createdAt,value
2019-04-05T00:00:39.421Z,9.40
2019-04-05T00:03:07.809Z,8.67
2019-04-05T00:05:36.228Z,9.57
2019-04-05T00:08:04.759Z,8.63
2019-04-05T00:10:33.256Z,8.80
2019-04-05T00:13:01.715Z,8.03
2019-04-05T00:15:30.109Z,8.77
2019-04-05T00:17:58.526Z,9.27
2019-04-05T00:20:26.934Z,8.27
2019-04-05T00:22:55.343Z,8.30
2019-04-05T00:25:23.745Z,10.00
2019-04-05T00:27:52.155Z,8.40
2019-04-05T00:30:20.637Z,9.00
2019-04-05T00:32:49.218Z,10.27
2019-04-05T00:35:17.646Z,8.97
2019-04-05T00:37:46.040Z,8.20
2019-04-05T00:40:15.314Z,9.07
2019-04-05T00:42:45.634Z,9.73
2019-04-05T00:45:27.049Z,8.10
2019-04-05T00:47:44.313Z,8.20
2019-04-05T00:50:13.290Z,9.27
2019-04-05T00:52:41.725Z,9.70
2019-04-05T00:55:10.274Z,9.20
2019-04-05T00:57:38.747Z,8.80
2019-04-05T01:00:07.799Z,9.03
2019-04-05T01:02:36.197Z,8.10
2019-04-05T01:05:06.960Z,8.77
2019-04-05T01:07:35.497Z,8.80
2019-04-05T01:10:05.684Z,8.37
2019-04-05T01:12:34.806Z,9.03
2019-04-05T01:15:03.223Z,9.90
2019-04-05T01:17:31.804Z,8.93
2019-04-05T01:20:02.996Z,9.40
2019-04-05T01:22:34.026Z,9.27
2019-04-05T01:25:02.799Z,8.30
2019-04-05T01:27:32.237Z,9.60
2019-04-05T01:30:00.630Z,8.93
2019-04-05T01:32:29.145Z,9.47
2019-04-05T01:34:57.571Z,9.50
2019-04-05T01:37:26.525Z,9.23
2019-04-05T01:39:54.923Z,9.67
2019-04-05T01:42:23.986Z,9.00
2019-04-05T01:44:52.520Z,8.90
2019-04-05T01:47:20.936Z,8.70
2019-04-05T01:49:49.338Z,8.53
2019-04-05T01:52:17.814Z,9.00
2019-04-05T01:54:46.216Z,9.30
2019-04-05T01:57:14.631Z,9.23
2019-04-05T01:59:43.024Z,8.60
2019-04-05T02:02:11.586Z,10.20
2019-04-05T02:04:39.982Z,9.63
2019-04-05T02:07:08.380Z,9.53
2019-04-05T02:09:37.221Z,8.90
2019-04-05T02:12:05.707Z,8.40
2019-04-05T02:14:34.177Z,9.87
2019-04-05T02:17:02.645Z,8.73
2019-04-05T02:19:31.036Z,8.97
2019-04-05T02:21:59.501Z,8.60
2019-04-05T02:24:27.963Z,8.93
2019-04-05T02:26:56.369Z,10.40
2019-04-05T02:29:24.761Z,9.17
2019-04-05T02:31:54.081Z,10.20
2019-04-05T02:34:22.484Z,9.60
2019-04-05T02:36:50.963Z,10.10
2019-04-05T02:39:19.457Z,11.00
2019-04-05T02:41:49.608Z,9.70
2019-04-05T02:44:19.739Z,9.80
2019-04-05T02:46:49.585Z,9.30
2019-04-05T02:49:20.419Z,8.70
2019-04-05T02:51:49.564Z,10.80
2019-04-05T02:54:19.004Z,10.17
2019-04-05T02:56:50.751Z,12.97
2019-04-05T02:59:19.778Z,14.40
2019-04-05T03:01:49.538Z,10.83
2019-04-05T03:04:18.006Z,10.13
2019-04-05T03:06:48.718Z,24.10
2019-04-05T03:09:17.700Z,15.63
2019-04-05T03:11:46.604Z,19.70
2019-04-05T03:14:15.064Z,10.90
2019-04-05T03:16:46.577Z,10.60
2019-04-05T03:19:18.308Z,10.30
2019-04-05T03:21:49.790Z,10.27
2019-04-05T03:24:21.262Z,10.17
2019-04-05T03:26:52.746Z,11.57
2019-04-05T03:29:21.228Z,10.87
2019-04-05T03:31:49.830Z,10.50
2019-04-05T03:34:18.300Z,11.60
2019-04-05T03:36:46.867Z,11.37
2019-04-05T03:39:15.848Z,11.00
2019-04-05T03:41:44.498Z,12.40
2019-04-05T03:44:13.650Z,11.40
2019-04-05T03:46:55.398Z,10.63
2019-04-05T03:49:12.909Z,12.40
2019-04-05T03:51:41.617Z,11.47
2019-04-05T03:54:10.778Z,12.27
2019-04-05T03:56:39.265Z,12.20
2019-04-05T03:59:07.759Z,13.10
2019-04-05T04:01:36.992Z,11.10
2019-04-05T04:04:05.839Z,12.60
2019-04-05T04:06:34.313Z,11.90
2019-04-05T04:09:04.065Z,12.43
2019-04-05T04:11:32.983Z,12.60
2019-04-05T04:14:01.458Z,13.07
2019-04-05T04:16:30.095Z,12.87
2019-04-05T04:19:18.008Z,13.50
2019-04-05T04:21:57.811Z,13.40
2019-04-05T04:24:26.293Z,12.67
2019-04-05T04:26:54.967Z,11.70
2019-04-05T04:29:23.637Z,13.57
2019-04-05T04:31:52.021Z,12.40
2019-04-05T04:34:20.581Z,12.30
2019-04-05T04:36:49.051Z,13.17
2019-04-05T04:39:17.531Z,13.77
2019-04-05T04:41:46.163Z,11.20
2019-04-05T04:44:14.569Z,11.57
2019-04-05T04:46:43.398Z,11.07
2019-04-05T04:49:11.885Z,12.50
2019-04-05T04:51:40.725Z,12.37
2019-04-05T04:54:09.474Z,12.10
2019-04-05T04:56:38.139Z,11.87
2019-04-05T04:59:07.250Z,13.10
2019-04-05T05:01:35.788Z,12.47
2019-04-05T05:04:04.451Z,13.10
2019-04-05T05:06:32.928Z,12.87
2019-04-05T05:09:01.327Z,14.73
2019-04-05T05:11:29.881Z,14.30
2019-04-05T05:13:58.368Z,13.60
2019-04-05T05:16:27.000Z,12.27
2019-04-05T05:18:55.411Z,12.77
2019-04-05T05:21:24.148Z,12.90
2019-04-05T05:23:52.616Z,13.30
2019-04-05T05:26:21.325Z,12.50
2019-04-05T05:28:50.101Z,14.10
2019-04-05T05:31:18.960Z,14.93
2019-04-05T05:33:47.512Z,12.60
2019-04-05T05:36:16.275Z,13.67
2019-04-05T05:38:44.754Z,13.33
2019-04-05T05:41:13.145Z,12.80
2019-04-05T05:43:41.555Z,12.00
2019-04-05T05:46:10.016Z,12.57
2019-04-05T05:48:39.073Z,13.43
2019-04-05T05:51:07.535Z,11.20
2019-04-05T05:53:35.963Z,11.63
2019-04-05T05:56:04.451Z,11.13
2019-04-05T05:58:32.874Z,10.27
2019-04-05T06:01:01.268Z,11.10
2019-04-05T06:03:29.684Z,10.80
2019-04-05T06:06:04.160Z,11.20
2019-04-05T06:08:29.332Z,11.03
2019-04-05T06:10:58.363Z,11.30
2019-04-05T06:13:26.782Z,11.13
2019-04-05T06:15:55.257Z,11.60
2019-04-05T06:18:23.684Z,11.67
2019-04-05T06:20:52.091Z,12.27
2019-04-05T06:23:33.125Z,11.63
2019-04-05T06:25:50.615Z,11.70
2019-04-05T06:28:19.050Z,12.47
2019-04-05T06:30:48.073Z,13.50
2019-04-05T06:33:16.501Z,12.90
2019-04-05T06:35:44.922Z,14.40
2019-04-05T06:38:13.378Z,12.40
2019-04-05T06:40:41.773Z,12.10
2019-04-05T06:43:10.187Z,11.67
2019-04-05T06:45:38.573Z,13.00
2019-04-05T06:48:18.321Z,13.23
2019-04-05T06:50:37.143Z,12.63
2019-04-05T06:53:05.555Z,12.37
2019-04-05T06:55:34.219Z,13.43
2019-04-05T06:58:02.632Z,12.30
2019-04-05T07:00:31.083Z,15.00
2019-04-05T07:02:59.852Z,13.73
2019-04-05T07:05:28.497Z,13.57
2019-04-05T07:07:56.894Z,14.90
2019-04-05T07:10:25.287Z,14.17
2019-04-05T07:12:53.690Z,14.00
2019-04-05T07:15:22.163Z,14.33
2019-04-05T07:17:50.571Z,14.40
2019-04-05T07:20:19.043Z,15.60
2019-04-05T07:22:47.446Z,15.07
2019-04-05T07:25:15.890Z,16.00
2019-04-05T07:27:44.279Z,16.53
2019-04-05T07:30:13.326Z,16.13
2019-04-05T07:32:41.727Z,15.30
2019-04-05T07:35:10.218Z,15.23
2019-04-05T07:37:38.621Z,16.10
2019-04-05T07:40:08.183Z,17.50
2019-04-05T07:42:36.583Z,19.10
2019-04-05T07:45:06.803Z,16.47
2019-04-05T07:47:35.222Z,18.40
2019-04-05T07:50:05.776Z,17.13
2019-04-05T07:52:34.163Z,18.90
2019-04-05T07:55:02.572Z,18.93
2019-04-05T07:57:30.967Z,18.40
2019-04-05T07:59:59.381Z,16.50
2019-04-05T08:02:27.780Z,19.50
2019-04-05T08:04:56.200Z,17.20
2019-04-05T08:07:27.662Z,16.90
2019-04-05T08:09:56.725Z,19.07
2019-04-05T08:12:26.277Z,18.83
2019-04-05T08:14:55.733Z,18.53
2019-04-05T08:17:24.136Z,19.47
2019-04-05T08:19:52.533Z,17.90
2019-04-05T08:22:20.921Z,16.40
2019-04-05T08:24:49.339Z,16.77
2019-04-05T08:27:17.740Z,17.53
2019-04-05T08:29:46.141Z,18.07
2019-04-05T08:32:15.146Z,16.50
2019-04-05T08:34:44.017Z,15.70
2019-04-05T08:37:12.411Z,17.23
2019-04-05T08:39:40.809Z,16.67
2019-04-05T08:42:10.808Z,16.10
2019-04-05T08:44:39.489Z,16.90
2019-04-05T08:47:07.895Z,14.00
2019-04-05T08:49:36.323Z,17.20
2019-04-05T08:52:04.872Z,16.70
2019-04-05T08:54:36.497Z,17.50
2019-04-05T08:57:03.534Z,18.80
2019-04-05T08:59:31.961Z,17.33
2019-04-05T09:02:00.365Z,17.33
2019-04-05T09:04:28.756Z,17.53
2019-04-05T09:06:57.155Z,18.33
2019-04-05T09:09:25.570Z,19.20
2019-04-05T09:11:53.977Z,17.03
2019-04-05T09:14:22.397Z,16.10
2019-04-05T09:16:50.804Z,18.10
2019-04-05T09:19:23.717Z,18.37
2019-04-05T09:21:49.349Z,21.97
2019-04-05T09:24:17.763Z,22.63
2019-04-05T09:26:46.173Z,18.00
2019-04-05T09:29:14.587Z,18.00
2019-04-05T09:31:43.005Z,18.33
2019-04-05T09:34:11.419Z,17.57
2019-04-05T09:36:39.864Z,22.40
2019-04-05T09:39:14.999Z,18.63
2019-04-05T09:41:40.730Z,19.40
2019-04-05T09:44:09.147Z,20.37
2019-04-05T09:46:46.855Z,19.73
2019-04-05T09:49:07.683Z,17.50
2019-04-05T09:51:36.107Z,18.67
2019-04-05T09:54:05.254Z,17.50
2019-04-05T09:56:33.664Z,18.20
2019-04-05T09:59:02.086Z,17.40
2019-04-05T10:01:30.502Z,19.80
2019-04-05T10:03:58.894Z,16.97
2019-04-05T10:06:27.413Z,18.60
2019-04-05T10:08:55.818Z,17.90
2019-04-05T10:11:24.233Z,16.90
2019-04-05T10:13:52.647Z,17.20
2019-04-05T10:16:21.071Z,18.40
2019-04-05T10:18:51.486Z,17.00
2019-04-05T10:21:19.620Z,18.63
2019-04-05T10:23:48.024Z,16.50
2019-04-05T10:26:16.455Z,17.00
2019-04-05T10:28:44.851Z,17.50
2019-04-05T10:31:13.271Z,19.13
2019-04-05T10:33:41.662Z,17.47
2019-04-05T10:36:10.085Z,17.37
2019-04-05T10:38:38.487Z,16.80
2019-04-05T10:41:06.895Z,17.90
2019-04-05T10:43:35.373Z,18.83
2019-04-05T10:46:05.541Z,17.53
2019-04-05T10:48:35.389Z,15.23
2019-04-05T10:51:04.238Z,16.00
2019-04-05T10:53:32.715Z,15.07
2019-04-05T10:56:01.139Z,16.17
2019-04-05T10:58:29.625Z,14.17
2019-04-05T11:00:58.050Z,14.57
2019-04-05T11:03:26.466Z,13.80
2019-04-05T11:05:54.950Z,14.20
2019-04-05T11:08:23.359Z,13.40
2019-04-05T11:10:51.782Z,14.13
2019-04-05T11:13:20.187Z,12.17
2019-04-05T11:15:48.600Z,11.97
2019-04-05T11:18:17.000Z,11.43
2019-04-05T11:20:48.812Z,11.53
2019-04-05T11:23:15.533Z,13.30
2019-04-05T11:25:43.955Z,11.67
2019-04-05T11:28:12.360Z,12.30
2019-04-05T11:30:43.179Z,10.23
2019-04-05T11:33:11.731Z,13.60
2019-04-05T11:35:40.211Z,15.73
2019-04-05T11:38:08.689Z,13.70
2019-04-05T11:40:37.217Z,14.63
2019-04-05T11:43:05.799Z,11.20
2019-04-05T11:45:35.434Z,11.27
2019-04-05T11:48:05.358Z,16.20
2019-04-05T11:50:35.037Z,12.13
2019-04-05T11:53:03.822Z,12.77
2019-04-05T11:55:32.235Z,11.17
2019-04-05T11:58:00.656Z,11.47
2019-04-05T12:00:45.745Z,11.80
2019-04-05T12:03:18.885Z,12.00
2019-04-05T12:05:47.295Z,10.90
2019-04-05T12:08:15.945Z,10.97
2019-04-05T12:10:44.402Z,10.97
2019-04-05T12:13:12.839Z,11.00
2019-04-05T12:15:41.257Z,10.83
2019-04-05T12:18:09.697Z,10.30
2019-04-05T12:20:49.568Z,9.77
2019-04-05T12:23:08.267Z,10.00
2019-04-05T12:25:36.668Z,11.00
2019-04-05T12:28:06.953Z,9.83
2019-04-05T12:30:35.468Z,9.73
2019-04-05T12:33:13.882Z,10.80
2019-04-05T12:35:34.134Z,9.73
2019-04-05T12:38:02.550Z,9.77
2019-04-05T12:40:30.947Z,8.70
2019-04-05T12:42:59.381Z,10.13
2019-04-05T12:45:27.786Z,10.33
2019-04-05T12:47:58.971Z,10.13
2019-04-05T12:50:26.333Z,10.37
2019-04-05T12:52:56.846Z,12.57
2019-04-05T12:55:24.879Z,9.60
2019-04-05T12:57:53.300Z,11.00
2019-04-05T13:00:23.640Z,12.10
2019-04-05T13:02:53.383Z,9.63
2019-04-05T13:05:21.957Z,9.80
2019-04-05T13:07:50.700Z,10.60
2019-04-05T13:10:20.702Z,10.50
2019-04-05T13:12:51.637Z,10.50
2019-04-05T13:15:19.317Z,10.60
2019-04-05T13:17:47.732Z,11.70
2019-04-05T13:20:16.327Z,10.57
2019-04-05T13:22:44.774Z,9.70
2019-04-05T13:25:13.239Z,10.33
2019-04-05T13:27:42.193Z,9.87
2019-04-05T13:30:11.468Z,11.60
2019-04-05T13:32:39.880Z,10.00
2019-04-05T13:35:08.412Z,10.27
2019-04-05T13:37:36.824Z,9.47
2019-04-05T13:40:08.968Z,9.97
2019-04-05T13:42:37.365Z,9.83
2019-04-05T13:45:07.977Z,9.93
2019-04-05T13:47:38.969Z,9.80
2019-04-05T13:50:10.857Z,9.87
2019-04-05T13:52:37.233Z,10.00
2019-04-05T13:55:10.516Z,9.23
2019-04-05T13:57:40.113Z,10.33
2019-04-05T14:00:08.666Z,10.80
2019-04-05T14:02:37.207Z,10.20
2019-04-05T14:05:06.373Z,11.00
2019-04-05T14:07:34.781Z,10.90
2019-04-05T14:10:04.590Z,10.10
2019-04-05T14:12:33.004Z,11.53
2019-04-05T14:15:02.352Z,10.07
2019-04-05T14:17:30.747Z,10.60
2019-04-05T14:19:59.171Z,12.33
2019-04-05T14:22:27.585Z,11.40
2019-04-05T14:24:56.773Z,12.60
2019-04-05T14:27:25.351Z,11.40
2019-04-05T14:29:53.772Z,11.00
2019-04-05T14:32:22.289Z,11.63
2019-04-05T14:35:10.075Z,10.90
2019-04-05T14:37:38.487Z,10.17
2019-04-05T14:40:07.746Z,10.40
2019-04-05T14:42:36.144Z,10.73
2019-04-05T14:45:07.171Z,11.70
2019-04-05T14:47:35.631Z,9.83
2019-04-05T14:50:06.283Z,10.40
2019-04-05T14:52:34.748Z,9.50
2019-04-05T14:55:03.239Z,10.10
2019-04-05T14:57:32.591Z,11.07
2019-04-05T15:00:01.781Z,11.10
2019-04-05T15:02:30.204Z,10.20
2019-04-05T15:04:58.633Z,9.50
2019-04-05T15:07:27.038Z,10.10
2019-04-05T15:09:55.765Z,9.97
2019-04-05T15:12:24.368Z,11.00
2019-04-05T15:14:52.777Z,9.80
2019-04-05T15:17:21.184Z,11.13
2019-04-05T15:19:49.611Z,10.47
2019-04-05T15:22:17.998Z,8.90
2019-04-05T15:24:47.077Z,10.27
2019-04-05T15:27:16.513Z,8.50
2019-04-05T15:29:44.927Z,9.60
2019-04-05T15:32:13.343Z,9.80
2019-04-05T15:34:41.756Z,8.87
2019-04-05T15:37:10.165Z,10.20
2019-04-05T15:39:38.586Z,9.63
2019-04-05T15:42:07.001Z,8.87
2019-04-05T15:44:35.409Z,9.37
2019-04-05T15:47:03.898Z,9.60
2019-04-05T15:49:32.328Z,9.87
2019-04-05T15:52:00.787Z,8.47
2019-04-05T15:54:29.346Z,9.90
2019-04-05T15:56:59.328Z,9.10
2019-04-05T15:59:33.333Z,8.80
2019-04-05T16:02:01.443Z,9.60
2019-04-05T16:04:29.944Z,8.70
2019-04-05T16:06:58.356Z,9.77
2019-04-05T16:09:26.770Z,9.47
2019-04-05T16:11:55.184Z,9.50
2019-04-05T16:14:23.578Z,9.20
2019-04-05T16:16:53.611Z,9.53
2019-04-05T16:19:22.205Z,10.43
2019-04-05T16:21:50.637Z,10.40
2019-04-05T16:24:19.041Z,10.13
2019-04-05T16:26:47.459Z,10.60
2019-04-05T16:29:15.874Z,10.17
2019-04-05T16:31:44.273Z,10.23
2019-04-05T16:34:12.697Z,10.10
2019-04-05T16:36:41.119Z,9.03
2019-04-05T16:39:11.223Z,9.13
2019-04-05T16:41:39.626Z,9.10
2019-04-05T16:44:08.115Z,8.80
2019-04-05T16:46:36.519Z,8.80
2019-04-05T16:49:04.910Z,8.53
2019-04-05T16:51:33.322Z,7.83
2019-04-05T16:54:02.699Z,9.37
2019-04-05T16:56:31.177Z,9.60
2019-04-05T16:58:59.563Z,9.53
2019-04-05T17:01:27.982Z,12.07
2019-04-05T17:03:56.396Z,12.57
2019-04-05T17:06:24.812Z,10.27
2019-04-05T17:08:53.218Z,11.30
2019-04-05T17:11:21.659Z,9.97
2019-04-05T17:13:50.072Z,9.20
2019-04-05T17:16:18.463Z,10.40
2019-04-05T17:18:46.862Z,9.00
2019-04-05T17:21:15.271Z,9.43
2019-04-05T17:23:43.666Z,8.50
2019-04-05T17:26:12.083Z,9.67
2019-04-05T17:28:40.485Z,9.80
2019-04-05T17:31:08.900Z,7.97
2019-04-05T17:33:37.320Z,8.67
2019-04-05T17:36:05.724Z,9.97
2019-04-05T17:38:34.175Z,9.87
2019-04-05T17:41:02.615Z,9.37
2019-04-05T17:43:31.005Z,8.57
2019-04-05T17:45:59.434Z,8.60
2019-04-05T17:48:27.836Z,9.07
2019-04-05T17:50:56.264Z,10.53
2019-04-05T17:53:24.662Z,9.87
2019-04-05T17:55:53.363Z,9.37
2019-04-05T17:58:42.606Z,9.10
2019-04-05T18:01:11.013Z,10.60
2019-04-05T18:03:39.406Z,9.83
2019-04-05T18:06:07.824Z,10.80
2019-04-05T18:08:36.374Z,11.20
2019-04-05T18:11:04.858Z,10.20
2019-04-05T18:13:33.273Z,10.40
2019-04-05T18:16:01.691Z,10.10
2019-04-05T18:18:30.110Z,9.70
2019-04-05T18:20:58.504Z,10.33
2019-04-05T18:23:26.915Z,11.00
2019-04-05T18:25:55.314Z,11.40
2019-04-05T18:28:23.758Z,11.10
2019-04-05T18:30:52.170Z,10.40
2019-04-05T18:33:20.559Z,10.53
2019-04-05T18:35:49.039Z,9.90
2019-04-05T18:38:17.446Z,9.90
2019-04-05T18:40:45.859Z,11.80
2019-04-05T18:43:14.273Z,10.47
2019-04-05T18:45:42.747Z,10.70
2019-04-05T18:48:11.176Z,10.07
2019-04-05T18:50:39.566Z,11.50
2019-04-05T18:53:07.999Z,10.97
2019-04-05T18:55:36.740Z,10.30
2019-04-05T18:58:05.155Z,10.83
2019-04-05T19:00:33.562Z,10.63
2019-04-05T19:03:02.003Z,11.10
2019-04-05T19:05:30.386Z,11.27
2019-04-05T19:07:58.826Z,11.33
2019-04-05T19:10:36.808Z,11.10
2019-04-05T19:12:59.423Z,11.13
2019-04-05T19:15:27.491Z,11.77
2019-04-05T19:17:55.895Z,11.97
2019-04-05T19:20:24.303Z,11.60
2019-04-05T19:22:52.897Z,10.87
2019-04-05T19:25:21.368Z,11.73
2019-04-05T19:27:49.865Z,15.07
2019-04-05T19:50:20.434Z,13.37
2019-04-05T19:52:48.856Z,13.00
2019-04-05T19:55:17.261Z,13.47
2019-04-05T19:57:45.699Z,12.97
2019-04-05T20:00:14.768Z,13.27
2019-04-05T20:02:43.169Z,12.80
2019-04-05T20:05:11.670Z,11.90
2019-04-05T20:07:40.066Z,12.07
2019-04-05T20:10:08.529Z,10.93
2019-04-05T20:12:36.960Z,13.00
2019-04-05T20:15:07.102Z,10.93
2019-04-05T20:17:35.510Z,10.33
2019-04-05T20:20:06.258Z,10.00
2019-04-05T20:22:34.664Z,11.27
2019-04-05T20:25:04.727Z,11.90
2019-04-05T20:27:33.138Z,12.20
2019-04-05T20:30:01.605Z,10.97
2019-04-05T20:32:30.019Z,12.07
2019-04-05T20:34:58.443Z,13.03
2019-04-05T20:37:26.844Z,13.23
2019-04-05T20:39:55.256Z,12.07
2019-04-05T20:42:23.691Z,12.33
2019-04-05T20:44:52.087Z,12.90
2019-04-05T20:47:20.489Z,13.33
2019-04-05T20:49:48.894Z,12.43
2019-04-05T20:52:17.281Z,13.10
2019-04-05T20:54:45.703Z,13.17
2019-04-05T20:57:14.105Z,15.10
2019-04-05T20:59:42.511Z,14.57
2019-04-05T21:02:10.920Z,14.93
2019-04-05T21:04:39.330Z,14.27
2019-04-05T21:07:07.717Z,12.77
2019-04-05T21:09:36.146Z,12.57
2019-04-05T21:12:04.605Z,13.00
2019-04-05T21:14:33.090Z,13.67
2019-04-05T21:17:01.497Z,12.93
2019-04-05T21:19:29.915Z,15.00
2019-04-05T21:21:58.297Z,13.57
2019-04-05T21:24:35.765Z,14.83
2019-04-05T21:26:56.849Z,14.80
2019-04-05T21:29:25.284Z,14.40
2019-04-05T21:31:53.660Z,13.40
2019-04-05T21:34:22.067Z,16.17
2019-04-05T21:36:50.463Z,13.07
2019-04-05T21:39:18.887Z,14.30
2019-04-05T21:41:47.275Z,13.47
2019-04-05T21:44:15.683Z,13.83
2019-04-05T21:46:44.157Z,15.27
2019-04-05T21:49:12.581Z,14.50
2019-04-05T21:51:41.003Z,17.20
2019-04-05T21:54:09.416Z,15.97
2019-04-05T21:56:37.819Z,15.33
2019-04-05T21:59:06.230Z,16.67
2019-04-05T22:01:34.643Z,17.23
2019-04-05T22:04:03.112Z,15.67
2019-04-05T22:06:31.541Z,16.73
2019-04-05T22:08:59.925Z,16.83
2019-04-05T22:11:28.357Z,16.93
2019-04-05T22:13:56.758Z,15.10
2019-04-05T22:16:25.187Z,17.23
2019-04-05T22:18:53.598Z,17.10
2019-04-05T22:21:22.010Z,17.93
2019-04-05T22:23:50.415Z,15.30
2019-04-05T22:26:18.935Z,18.53
2019-04-05T22:29:06.671Z,18.50
2019-04-05T22:31:35.086Z,16.10
2019-04-05T22:34:03.563Z,18.93
2019-04-05T22:36:31.980Z,16.60
2019-04-05T22:39:00.393Z,18.83
2019-04-05T22:41:28.812Z,16.60
2019-04-05T22:43:57.214Z,18.37
2019-04-05T22:46:25.621Z,18.00
2019-04-05T22:48:54.042Z,16.20
2019-04-05T22:51:22.459Z,17.40
2019-04-05T22:53:50.845Z,18.80
2019-04-05T22:56:19.265Z,18.57
2019-04-05T22:58:47.670Z,18.27
2019-04-05T23:01:16.078Z,19.57
2019-04-05T23:03:44.478Z,17.63
2019-04-05T23:06:12.916Z,17.40
2019-04-05T23:08:41.305Z,16.97
2019-04-05T23:11:09.719Z,18.57
2019-04-05T23:13:38.110Z,21.30
2019-04-05T23:16:06.546Z,19.63
2019-04-05T23:18:34.930Z,19.17
2019-04-05T23:21:03.355Z,19.40
2019-04-05T23:23:31.724Z,19.30
2019-04-05T23:26:00.152Z,18.97
2019-04-05T23:28:28.542Z,19.17
2019-04-05T23:30:56.959Z,19.90
2019-04-05T23:33:25.350Z,20.73
2019-04-05T23:35:53.759Z,19.30
2019-04-05T23:38:22.167Z,19.03
2019-04-05T23:40:50.635Z,17.43
2019-04-05T23:43:19.031Z,18.47
2019-04-05T23:45:47.454Z,19.30
2019-04-05T23:48:15.858Z,18.00
2019-04-05T23:50:44.261Z,19.27
2019-04-05T23:53:12.653Z,18.50
2019-04-05T23:55:41.060Z,19.33
2019-04-05T23:58:09.518Z,17.43
